Odienne Airport


Codes: DIOD/KEO
Name: Odienne Airport
City: Odienne
Country: Cote dIvoire
Elevation: 1365 ft.

Photos at Odienne Airport


   Photos courtesy of SpottingLog. You can add your own sightings and photos by signing up for a free trial today.



No photos found.

Weather at Odienne Airport


Time (UTC)DescriptionTempratureWindCloud coverageVisibilityPressureHumidity
16-Jun-2024 00:00Light Rain24°C4 mph, SW76%10000m1011hPa86%
16-Jun-2024 03:00Light Rain23°C2 mph, SW63%10000m1011hPa89%
16-Jun-2024 06:00Light Rain22°C2 mph, W51%7429m1012hPa93%
16-Jun-2024 09:00Light Rain25°C4 mph, W67%10000m1013hPa84%
16-Jun-2024 12:00Broken Clouds31°C4 mph, W82%10000m1011hPa55%
16-Jun-2024 15:00Overcast Clouds34°C2 mph, SE99%10000m1008hPa44%
16-Jun-2024 18:00Light Rain28°C4 mph, W94%10000m1008hPa69%
16-Jun-2024 21:00Moderate Rain23°C2 mph, NE100%4194m1012hPa94%
17-Jun-2024 00:00Heavy Intensity Rain21°C4 mph, NE100%10000m1014hPa97%
17-Jun-2024 03:00Light Rain21°C0 mph, NW100%10000m1012hPa97%
17-Jun-2024 06:00Overcast Clouds21°C4 mph, S100%10000m1012hPa97%
17-Jun-2024 09:00Overcast Clouds22°C4 mph, SE100%10000m1014hPa95%
17-Jun-2024 12:00Light Rain22°C2 mph, SW100%10000m1013hPa90%
17-Jun-2024 15:00Overcast Clouds25°C2 mph, NW100%10000m1011hPa74%
17-Jun-2024 18:00Overcast Clouds25°C2 mph, W100%10000m1011hPa78%
17-Jun-2024 21:00Overcast Clouds23°C2 mph, SW100%10000m1013hPa84%
18-Jun-2024 00:00Overcast Clouds22°C2 mph, S94%10000m1013hPa88%
18-Jun-2024 03:00Light Rain22°C2 mph, S98%10000m1012hPa91%
18-Jun-2024 06:00Light Rain21°C2 mph, S99%10000m1013hPa96%
18-Jun-2024 09:00Light Rain24°C4 mph, S89%5538m1015hPa88%
18-Jun-2024 12:00Light Rain28°C4 mph, SE64%8532m1013hPa74%
18-Jun-2024 15:00Light Rain29°C4 mph, E80%10000m1011hPa64%
18-Jun-2024 18:00Moderate Rain26°C4 mph, SE81%10000m1011hPa86%
18-Jun-2024 21:00Moderate Rain23°C4 mph, SE100%10000m1013hPa89%
19-Jun-2024 00:00Light Rain23°C4 mph, S100%10000m1013hPa96%
19-Jun-2024 03:00Light Rain22°C4 mph, SW100%10000m1012hPa94%
19-Jun-2024 06:00Overcast Clouds22°C2 mph, W100%10000m1013hPa94%
19-Jun-2024 09:00Overcast Clouds25°C2 mph, W100%10000m1014hPa80%
19-Jun-2024 12:00Broken Clouds31°C4 mph, W82%10000m1013hPa57%
19-Jun-2024 15:00Broken Clouds33°C2 mph, S54%10000m1010hPa49%
19-Jun-2024 18:00Broken Clouds30°C2 mph, SW65%10000m1010hPa66%
19-Jun-2024 21:00Light Rain26°C4 mph, SW51%10000m1011hPa73%
20-Jun-2024 00:00Moderate Rain23°C4 mph, W60%10000m1012hPa94%
20-Jun-2024 03:00Light Rain23°C0 mph, NE100%10000m1011hPa94%
20-Jun-2024 06:00Moderate Rain21°C11 mph, N100%3032m1014hPa97%
20-Jun-2024 09:00Light Rain21°C7 mph, SW100%10000m1013hPa94%
20-Jun-2024 12:00Overcast Clouds26°C4 mph, W100%10000m1012hPa67%
20-Jun-2024 15:00Overcast Clouds30°C2 mph, NW97%10000m1010hPa54%
20-Jun-2024 18:00Broken Clouds28°C2 mph, SW81%10000m1010hPa70%
20-Jun-2024 21:00Light Rain24°C2 mph, SW71%10000m1012hPa85%